Terminal Aerodrome Forecast
Issued by NWS Flagstaff, AZ

Home | Current Version | Previous Version | Text Only | Print | Product List | Glossary On
Versions: 1 2 3 4 5 6 7 8 9 10 11 12 13
768
FTUS45 KFGZ 220528
TAFFLG
TAF
KFLG 220528Z 2206/2306 VRB02KT P6SM SKC
     FM221800 07008KT P6SM SKC
     FM230130 VRB02KT P6SM SKC=

USA.gov is the U.S. government's official web portal to all federal, state and local government web resources and services.